sensor_id;sensor_type;location;lat;lon;timestamp;pressure;altitude;pressure_sealevel;temperature;humidity
56668;BME280;42542;48.360;10.958;2023-01-01T00:01:46;96536.22;;;8.08;92.75
56668;BME280;42542;48.360;10.958;2023-01-01T00:04:48;96546.91;;;8.28;93.31
56668;BME280;42542;48.360;10.958;2023-01-01T00:07:49;96555.03;;;8.36;92.38
56668;BME280;42542;48.360;10.958;2023-01-01T00:10:51;96551.28;;;8.38;92.70
56668;BME280;42542;48.360;10.958;2023-01-01T00:13:52;96549.44;;;8.39;91.89
56668;BME280;42542;48.360;10.958;2023-01-01T00:16:54;96553.94;;;8.38;91.76
56668;BME280;42542;48.360;10.958;2023-01-01T00:19:56;96555.03;;;8.36;92.46
56668;BME280;42542;48.360;10.958;2023-01-01T00:22:58;96563.03;;;8.36;92.33
56668;BME280;42542;48.360;10.958;2023-01-01T00:25:59;96565.16;;;8.32;92.37
56668;BME280;42542;48.360;10.958;2023-01-01T00:29:02;96561.75;;;8.30;91.93
56668;BME280;42542;48.360;10.958;2023-01-01T00:32:04;96571.84;;;8.27;92.29
56668;BME280;42542;48.360;10.958;2023-01-01T00:35:11;96558.94;;;8.22;92.37
56668;BME280;42542;48.360;10.958;2023-01-01T00:38:13;96560.06;;;8.19;92.07
56668;BME280;42542;48.360;10.958;2023-01-01T00:41:15;96563.84;;;8.17;92.29
56668;BME280;42542;48.360;10.958;2023-01-01T00:44:17;96569.59;;;8.12;92.45
56668;BME280;42542;48.360;10.958;2023-01-01T00:47:19;96577.72;;;8.11;92.50
56668;BME280;42542;48.360;10.958;2023-01-01T00:50:21;96584.16;;;8.08;92.39
56668;BME280;42542;48.360;10.958;2023-01-01T00:53:22;96581.78;;;8.05;92.57
56668;BME280;42542;48.360;10.958;2023-01-01T00:56:24;96580.34;;;8.01;92.79
56668;BME280;42542;48.360;10.958;2023-01-01T00:59:26;96585.13;;;7.98;92.79
56668;BME280;42542;48.360;10.958;2023-01-01T01:02:29;96590.84;;;7.93;92.73
56668;BME280;42542;48.360;10.958;2023-01-01T01:05:32;96582.16;;;7.91;92.36
56668;BME280;42542;48.360;10.958;2023-01-01T01:08:36;96589.56;;;7.88;92.34
56668;BME280;42542;48.360;10.958;2023-01-01T01:11:38;96579.47;;;7.81;92.47
56668;BME280;42542;48.360;10.958;2023-01-01T01:14:40;96569.94;;;7.79;91.99
56668;BME280;42542;48.360;10.958;2023-01-01T01:17:41;96576.38;;;7.76;92.15
56668;BME280;42542;48.360;10.958;2023-01-01T01:20:51;96574.69;;;7.75;92.50
56668;BME280;42542;48.360;10.958;2023-01-01T01:23:53;96573.00;;;7.74;92.44
56668;BME280;42542;48.360;10.958;2023-01-01T01:26:55;96574.81;;;7.74;92.58
56668;BME280;42542;48.360;10.958;2023-01-01T01:29:57;96572.28;;;7.72;92.98
56668;BME280;42542;48.360;10.958;2023-01-01T01:32:58;96569.63;;;7.72;92.94
56668;BME280;42542;48.360;10.958;2023-01-01T01:36:00;96575.09;;;7.71;93.14
56668;BME280;42542;48.360;10.958;2023-01-01T01:39:01;96574.41;;;7.69;93.35
56668;BME280;42542;48.360;10.958;2023-01-01T01:42:03;96587.84;;;7.67;92.91
56668;BME280;42542;48.360;10.958;2023-01-01T01:45:05;96583.63;;;7.65;93.02
56668;BME280;42542;48.360;10.958;2023-01-01T01:48:08;96582.09;;;7.62;93.18
56668;BME280;42542;48.360;10.958;2023-01-01T01:51:12;96580.41;;;7.61;93.51
56668;BME280;42542;48.360;10.958;2023-01-01T01:54:18;96585.97;;;7.58;93.45
56668;BME280;42542;48.360;10.958;2023-01-01T01:57:22;96585.13;;;7.58;93.75
56668;BME280;42542;48.360;10.958;2023-01-01T02:00:24;96578.13;;;7.57;93.38
56668;BME280;42542;48.360;10.958;2023-01-01T02:03:47;96574.78;;;7.55;93.73
56668;BME280;42542;48.360;10.958;2023-01-01T02:06:51;96570.28;;;7.55;93.65
56668;BME280;42542;48.360;10.958;2023-01-01T02:09:56;96561.72;;;7.52;93.55
56668;BME280;42542;48.360;10.958;2023-01-01T02:12:58;96558.94;;;7.53;93.35
56668;BME280;42542;48.360;10.958;2023-01-01T02:16:12;96564.13;;;7.55;93.38
56668;BME280;42542;48.360;10.958;2023-01-01T02:29:03;96562.03;;;7.49;93.26
56668;BME280;42542;48.360;10.958;2023-01-01T02:32:12;96563.00;;;7.48;93.42
56668;BME280;42542;48.360;10.958;2023-01-01T02:35:33;96562.28;;;7.45;93.49
56668;BME280;42542;48.360;10.958;2023-01-01T02:38:39;96573.88;;;7.44;93.58
56668;BME280;42542;48.360;10.958;2023-01-01T02:41:47;96578.50;;;7.42;93.25
56668;BME280;42542;48.360;10.958;2023-01-01T02:44:53;96581.16;;;7.42;93.41
56668;BME280;42542;48.360;10.958;2023-01-01T02:47:56;96574.16;;;7.41;93.13
56668;BME280;42542;48.360;10.958;2023-01-01T02:51:02;96568.00;;;7.41;93.35
56668;BME280;42542;48.360;10.958;2023-01-01T03:00:32;96570.19;;;7.36;93.90
56668;BME280;42542;48.360;10.958;2023-01-01T03:03:41;96582.94;;;7.32;94.11
56668;BME280;42542;48.360;10.958;2023-01-01T03:10:18;96583.31;;;7.28;94.06
56668;BME280;42542;48.360;10.958;2023-01-01T03:16:37;96588.91;;;7.25;94.09
56668;BME280;42542;48.360;10.958;2023-01-01T03:19:42;96585.66;;;7.21;93.91
56668;BME280;42542;48.360;10.958;2023-01-01T03:22:46;96585.81;;;7.20;94.10
56668;BME280;42542;48.360;10.958;2023-01-01T03:25:52;96589.56;;;7.17;93.80
56668;BME280;42542;48.360;10.958;2023-01-01T03:28:56;96580.88;;;7.15;93.75
56668;BME280;42542;48.360;10.958;2023-01-01T03:32:01;96571.38;;;7.13;93.74
56668;BME280;42542;48.360;10.958;2023-01-01T03:35:05;96570.78;;;7.09;93.93
56668;BME280;42542;48.360;10.958;2023-01-01T03:38:11;96580.44;;;7.10;94.11
56668;BME280;42542;48.360;10.958;2023-01-01T03:41:25;96577.91;;;7.09;94.11
56668;BME280;42542;48.360;10.958;2023-01-01T03:44:34;96574.53;;;7.06;94.00
56668;BME280;42542;48.360;10.958;2023-01-01T03:47:36;96576.63;;;7.03;94.10
56668;BME280;42542;48.360;10.958;2023-01-01T03:54:01;96590.75;;;7.03;94.09
56668;BME280;42542;48.360;10.958;2023-01-01T03:57:12;96574.75;;;6.94;94.35
56668;BME280;42542;48.360;10.958;2023-01-01T04:00:32;96582.47;;;6.97;94.10
56668;BME280;42542;48.360;10.958;2023-01-01T04:03:36;96577.53;;;6.92;93.97
56668;BME280;42542;48.360;10.958;2023-01-01T04:06:39;96580.34;;;6.91;94.09
56668;BME280;42542;48.360;10.958;2023-01-01T04:09:43;96584.09;;;6.88;94.21
56668;BME280;42542;48.360;10.958;2023-01-01T04:12:49;96577.09;;;6.87;94.13
56668;BME280;42542;48.360;10.958;2023-01-01T04:15:52;96577.38;;;6.84;94.41
56668;BME280;42542;48.360;10.958;2023-01-01T04:18:54;96582.69;;;6.84;94.42
56668;BME280;42542;48.360;10.958;2023-01-01T04:21:56;96587.16;;;6.84;94.36
56668;BME280;42542;48.360;10.958;2023-01-01T04:24:58;96588.25;;;6.81;94.39
56668;BME280;42542;48.360;10.958;2023-01-01T04:28:00;96590.19;;;6.79;94.56
56668;BME280;42542;48.360;10.958;2023-01-01T04:31:04;96591.16;;;6.78;94.44
56668;BME280;42542;48.360;10.958;2023-01-01T04:34:07;96588.50;;;6.78;94.62
56668;BME280;42542;48.360;10.958;2023-01-01T04:37:09;96579.00;;;6.76;94.85
56668;BME280;42542;48.360;10.958;2023-01-01T04:40:14;96594.19;;;6.74;94.69
56668;BME280;42542;48.360;10.958;2023-01-01T04:43:16;96583.81;;;6.71;94.59
56668;BME280;42542;48.360;10.958;2023-01-01T04:46:19;96586.47;;;6.71;94.89
56668;BME280;42542;48.360;10.958;2023-01-01T04:49:21;96599.91;;;6.69;94.68
56668;BME280;42542;48.360;10.958;2023-01-01T04:52:23;96604.38;;;6.69;94.66
56668;BME280;42542;48.360;10.958;2023-01-01T04:55:24;96603.66;;;6.66;94.50
56668;BME280;42542;48.360;10.958;2023-01-01T04:58:27;96607.16;;;6.67;94.72
56668;BME280;42542;48.360;10.958;2023-01-01T05:01:29;96604.50;;;6.67;95.10
56668;BME280;42542;48.360;10.958;2023-01-01T05:04:32;96611.75;;;6.65;94.58
56668;BME280;42542;48.360;10.958;2023-01-01T05:07:34;96618.88;;;6.64;94.96
56668;BME280;42542;48.360;10.958;2023-01-01T05:10:35;96605.88;;;6.61;95.09
56668;BME280;42542;48.360;10.958;2023-01-01T05:13:40;96620.97;;;6.61;95.25
56668;BME280;42542;48.360;10.958;2023-01-01T05:16:42;96605.16;;;6.59;95.38
56668;BME280;42542;48.360;10.958;2023-01-01T05:19:45;96615.78;;;6.59;95.37
56668;BME280;42542;48.360;10.958;2023-01-01T05:22:46;96624.69;;;6.58;95.52
56668;BME280;42542;48.360;10.958;2023-01-01T05:25:48;96615.78;;;6.59;95.58
56668;BME280;42542;48.360;10.958;2023-01-01T05:28:50;96632.66;;;6.58;95.49
56668;BME280;42542;48.360;10.958;2023-01-01T05:31:52;96630.97;;;6.57;95.75
56668;BME280;42542;48.360;10.958;2023-01-01T05:34:54;96635.59;;;6.55;95.52
56668;BME280;42542;48.360;10.958;2023-01-01T05:37:56;96625.94;;;6.54;95.68
56668;BME280;42542;48.360;10.958;2023-01-01T05:40:58;96634.88;;;6.53;95.69
56668;BME280;42542;48.360;10.958;2023-01-01T05:44:01;96628.97;;;6.50;95.42
56668;BME280;42542;48.360;10.958;2023-01-01T05:47:03;96639.56;;;6.50;95.67
56668;BME280;42542;48.360;10.958;2023-01-01T05:50:05;96646.00;;;6.47;95.83
56668;BME280;42542;48.360;10.958;2023-01-01T05:53:06;96648.78;;;6.46;95.96
56668;BME280;42542;48.360;10.958;2023-01-01T05:56:08;96648.06;;;6.44;95.95
56668;BME280;42542;48.360;10.958;2023-01-01T05:59:10;96649.97;;;6.42;96.09
56668;BME280;42542;48.360;10.958;2023-01-01T06:02:11;96652.06;;;6.38;95.99
56668;BME280;42542;48.360;10.958;2023-01-01T06:05:13;96661.97;;;6.36;95.70
56668;BME280;42542;48.360;10.958;2023-01-01T06:08:15;96667.38;;;6.35;95.61
56668;BME280;42542;48.360;10.958;2023-01-01T06:11:17;96658.84;;;6.31;95.96
56668;BME280;42542;48.360;10.958;2023-01-01T06:14:19;96661.50;;;6.31;95.93
56668;BME280;42542;48.360;10.958;2023-01-01T06:17:21;96658.13;;;6.29;96.01
56668;BME280;42542;48.360;10.958;2023-01-01T06:20:24;96655.72;;;6.26;96.43
56668;BME280;42542;48.360;10.958;2023-01-01T06:23:25;96664.53;;;6.26;96.57
56668;BME280;42542;48.360;10.958;2023-01-01T06:26:30;96666.81;;;6.20;96.77
56668;BME280;42542;48.360;10.958;2023-01-01T06:29:33;96670.66;;;6.27;96.91
56668;BME280;42542;48.360;10.958;2023-01-01T06:32:35;96685.50;;;6.30;97.23
56668;BME280;42542;48.360;10.958;2023-01-01T06:35:37;96677.31;;;6.33;97.48
56668;BME280;42542;48.360;10.958;2023-01-01T06:38:41;96678.72;;;6.37;97.61
56668;BME280;42542;48.360;10.958;2023-01-01T06:41:43;96685.50;;;6.41;97.49
56668;BME280;42542;48.360;10.958;2023-01-01T06:44:46;96683.41;;;6.44;97.52
56668;BME280;42542;48.360;10.958;2023-01-01T06:47:47;96678.09;;;6.44;97.28
56668;BME280;42542;48.360;10.958;2023-01-01T06:50:50;96679.69;;;6.47;97.44
56668;BME280;42542;48.360;10.958;2023-01-01T06:53:52;96687.38;;;6.50;97.35
56668;BME280;42542;48.360;10.958;2023-01-01T06:56:54;96679.19;;;6.53;97.65
56668;BME280;42542;48.360;10.958;2023-01-01T06:59:56;96694.59;;;6.59;97.76
56668;BME280;42542;48.360;10.958;2023-01-01T07:02:57;96686.13;;;6.65;97.76
56668;BME280;42542;48.360;10.958;2023-01-01T07:05:59;96686.47;;;6.72;97.78
56668;BME280;42542;48.360;10.958;2023-01-01T07:09:02;96684.41;;;6.75;97.51
56668;BME280;42542;48.360;10.958;2023-01-01T07:12:08;96688.38;;;6.81;97.60
56668;BME280;42542;48.360;10.958;2023-01-01T07:15:11;96703.34;;;6.82;97.05
56668;BME280;42542;48.360;10.958;2023-01-01T07:18:13;96717.47;;;6.82;97.00
56668;BME280;42542;48.360;10.958;2023-01-01T07:21:43;96718.44;;;6.81;96.35
56668;BME280;42542;48.360;10.958;2023-01-01T07:24:46;96732.81;;;6.79;96.51
56668;BME280;42542;48.360;10.958;2023-01-01T07:27:49;96731.25;;;6.76;96.33
56668;BME280;42542;48.360;10.958;2023-01-01T07:30:51;96747.44;;;6.73;96.17
56668;BME280;42542;48.360;10.958;2023-01-01T07:33:56;96746.03;;;6.69;96.30
56668;BME280;42542;48.360;10.958;2023-01-01T07:36:58;96748.78;;;6.68;96.32
56668;BME280;42542;48.360;10.958;2023-01-01T07:40:00;96754.22;;;6.66;96.46
56668;BME280;42542;48.360;10.958;2023-01-01T07:43:01;96752.66;;;6.63;96.31
56668;BME280;42542;48.360;10.958;2023-01-01T07:46:04;96755.47;;;6.62;96.26
56668;BME280;42542;48.360;10.958;2023-01-01T07:49:05;96752.06;;;6.60;96.56
56668;BME280;42542;48.360;10.958;2023-01-01T07:52:08;96757.50;;;6.58;96.67
56668;BME280;42542;48.360;10.958;2023-01-01T07:55:14;96770.91;;;6.57;96.70
56668;BME280;42542;48.360;10.958;2023-01-01T07:58:17;96765.84;;;6.54;96.56
56668;BME280;42542;48.360;10.958;2023-01-01T08:01:19;96767.78;;;6.52;96.86
56668;BME280;42542;48.360;10.958;2023-01-01T08:04:20;96776.59;;;6.52;97.02
56668;BME280;42542;48.360;10.958;2023-01-01T08:07:23;96785.63;;;6.50;97.08
56668;BME280;42542;48.360;10.958;2023-01-01T08:10:25;96785.63;;;6.50;96.95
56668;BME280;42542;48.360;10.958;2023-01-01T08:13:26;96788.28;;;6.50;97.45
56668;BME280;42542;48.360;10.958;2023-01-01T08:16:28;96791.78;;;6.50;97.26
56668;BME280;42542;48.360;10.958;2023-01-01T08:19:30;96790.84;;;6.51;97.48
56668;BME280;42542;48.360;10.958;2023-01-01T08:22:31;96788.91;;;6.53;97.21
56668;BME280;42542;48.360;10.958;2023-01-01T08:25:34;96793.00;;;6.57;97.57
56668;BME280;42542;48.360;10.958;2023-01-01T08:28:36;96784.78;;;6.60;98.00
56668;BME280;42542;48.360;10.958;2023-01-01T08:31:37;96782.59;;;6.65;98.26
56668;BME280;42542;48.360;10.958;2023-01-01T08:34:39;96780.16;;;6.74;98.12
56668;BME280;42542;48.360;10.958;2023-01-01T08:37:41;96773.63;;;6.78;98.04
56668;BME280;42542;48.360;10.958;2023-01-01T08:40:43;96775.31;;;6.90;97.86
56668;BME280;42542;48.360;10.958;2023-01-01T08:43:44;96780.69;;;6.99;97.62
56668;BME280;42542;48.360;10.958;2023-01-01T08:46:46;96779.22;;;7.06;98.12
56668;BME280;42542;48.360;10.958;2023-01-01T08:49:49;96778.56;;;7.14;97.76
56668;BME280;42542;48.360;10.958;2023-01-01T08:52:51;96764.59;;;7.12;97.65
56668;BME280;42542;48.360;10.958;2023-01-01T08:55:58;96781.78;;;7.29;97.66
56668;BME280;42542;48.360;10.958;2023-01-01T08:59:00;96780.28;;;7.36;97.85
56668;BME280;42542;48.360;10.958;2023-01-01T09:02:05;96782.31;;;7.43;97.50
56668;BME280;42542;48.360;10.958;2023-01-01T09:05:08;96777.06;;;7.53;97.70
56668;BME280;42542;48.360;10.958;2023-01-01T09:08:11;96780.66;;;7.63;97.51
56668;BME280;42542;48.360;10.958;2023-01-01T09:11:20;96776.34;;;7.72;97.12
56668;BME280;42542;48.360;10.958;2023-01-01T09:14:23;96763.81;;;7.83;97.05
56668;BME280;42542;48.360;10.958;2023-01-01T09:17:25;96754.78;;;7.96;97.08
56668;BME280;42542;48.360;10.958;2023-01-01T09:20:27;96753.31;;;8.12;96.69
56668;BME280;42542;48.360;10.958;2023-01-01T09:23:29;96768.97;;;8.36;96.80
56668;BME280;42542;48.360;10.958;2023-01-01T09:26:31;96763.19;;;8.61;95.68
56668;BME280;42542;48.360;10.958;2023-01-01T09:29:33;96751.56;;;8.82;95.30
56668;BME280;42542;48.360;10.958;2023-01-01T09:32:35;96750.88;;;9.09;94.92
56668;BME280;42542;48.360;10.958;2023-01-01T09:35:36;96764.41;;;9.36;93.96
56668;BME280;42542;48.360;10.958;2023-01-01T09:38:39;96771.81;;;9.61;93.05
56668;BME280;42542;48.360;10.958;2023-01-01T09:45:16;96756.97;;;10.05;90.72
56668;BME280;42542;48.360;10.958;2023-01-01T09:48:22;96752.28;;;10.27;90.74
56668;BME280;42542;48.360;10.958;2023-01-01T09:51:33;96760.19;;;10.46;89.60
56668;BME280;42542;48.360;10.958;2023-01-01T09:55:03;96754.44;;;10.68;88.59
56668;BME280;42542;48.360;10.958;2023-01-01T09:58:10;96754.63;;;10.84;87.59
56668;BME280;42542;48.360;10.958;2023-01-01T10:04:30;96765.53;;;11.18;86.34
56668;BME280;42542;48.360;10.958;2023-01-01T10:10:54;96761.84;;;11.55;84.71
56668;BME280;42542;48.360;10.958;2023-01-01T10:13:59;96762.13;;;11.69;84.49
56668;BME280;42542;48.360;10.958;2023-01-01T10:17:09;96756.78;;;11.87;83.87
56668;BME280;42542;48.360;10.958;2023-01-01T10:20:23;96756.22;;;12.01;82.94
56668;BME280;42542;48.360;10.958;2023-01-01T10:23:32;96753.78;;;12.16;81.95
56668;BME280;42542;48.360;10.958;2023-01-01T10:26:38;96755.19;;;12.28;81.07
56668;BME280;42542;48.360;10.958;2023-01-01T10:29:44;96753.91;;;12.40;80.47
56668;BME280;42542;48.360;10.958;2023-01-01T10:32:49;96738.69;;;12.49;79.49
56668;BME280;42542;48.360;10.958;2023-01-01T10:35:52;96744.59;;;12.61;78.50
56668;BME280;42542;48.360;10.958;2023-01-01T10:38:59;96739.66;;;12.74;78.40
56668;BME280;42542;48.360;10.958;2023-01-01T10:42:01;96734.97;;;12.84;78.53
56668;BME280;42542;48.360;10.958;2023-01-01T10:45:04;96727.09;;;12.90;77.14
56668;BME280;42542;48.360;10.958;2023-01-01T10:48:24;96725.28;;;12.99;75.90
56668;BME280;42542;48.360;10.958;2023-01-01T10:51:26;96727.16;;;13.07;75.96
56668;BME280;42542;48.360;10.958;2023-01-01T10:54:33;96728.19;;;13.14;75.29
56668;BME280;42542;48.360;10.958;2023-01-01T10:57:36;96718.47;;;13.21;74.93
56668;BME280;42542;48.360;10.958;2023-01-01T11:00:39;96714.81;;;13.30;75.18
56668;BME280;42542;48.360;10.958;2023-01-01T11:04:01;96715.81;;;13.37;74.20
56668;BME280;42542;48.360;10.958;2023-01-01T11:07:05;96706.25;;;13.43;73.63
56668;BME280;42542;48.360;10.958;2023-01-01T11:10:16;96707.09;;;13.51;73.19
56668;BME280;42542;48.360;10.958;2023-01-01T11:13:20;96701.88;;;13.58;73.90
56668;BME280;42542;48.360;10.958;2023-01-01T11:16:22;96693.31;;;13.62;73.18
56668;BME280;42542;48.360;10.958;2023-01-01T11:19:31;96684.75;;;13.67;73.03
56668;BME280;42542;48.360;10.958;2023-01-01T11:22:42;96674.16;;;13.74;72.94
56668;BME280;42542;48.360;10.958;2023-01-01T11:29:20;96662.88;;;13.86;72.59
56668;BME280;42542;48.360;10.958;2023-01-01T11:32:34;96657.34;;;13.88;71.94
56668;BME280;42542;48.360;10.958;2023-01-01T11:35:47;96669.41;;;13.92;72.02
56668;BME280;42542;48.360;10.958;2023-01-01T11:42:06;96662.72;;;13.96;71.59
56668;BME280;42542;48.360;10.958;2023-01-01T11:48:18;96675.75;;;14.07;70.85
56668;BME280;42542;48.360;10.958;2023-01-01T11:51:31;96667.69;;;14.15;70.26
56668;BME280;42542;48.360;10.958;2023-01-01T11:54:34;96665.31;;;14.20;70.15
56668;BME280;42542;48.360;10.958;2023-01-01T11:57:40;96659.06;;;14.28;70.16
56668;BME280;42542;48.360;10.958;2023-01-01T12:00:44;96666.63;;;14.32;69.35
56668;BME280;42542;48.360;10.958;2023-01-01T12:04:04;96664.94;;;14.39;69.18
56668;BME280;42542;48.360;10.958;2023-01-01T12:07:29;96666.44;;;14.42;67.63
56668;BME280;42542;48.360;10.958;2023-01-01T12:10:43;96654.00;;;14.41;66.94
56668;BME280;42542;48.360;10.958;2023-01-01T12:13:51;96653.97;;;14.49;67.00
56668;BME280;42542;48.360;10.958;2023-01-01T12:17:19;96660.31;;;14.56;67.13
56668;BME280;42542;48.360;10.958;2023-01-01T12:20:33;96650.72;;;14.62;66.90
56668;BME280;42542;48.360;10.958;2023-01-01T12:23:37;96652.19;;;14.64;66.75
56668;BME280;42542;48.360;10.958;2023-01-01T12:26:59;96651.84;;;14.67;66.39
56668;BME280;42542;48.360;10.958;2023-01-01T12:30:51;96644.25;;;14.71;66.34
56668;BME280;42542;48.360;10.958;2023-01-01T12:40:28;96642.66;;;14.84;65.53
56668;BME280;42542;48.360;10.958;2023-01-01T12:43:37;96636.09;;;14.87;64.27
56668;BME280;42542;48.360;10.958;2023-01-01T12:46:48;96630.38;;;14.90;63.99
56668;BME280;42542;48.360;10.958;2023-01-01T12:56:39;96621.50;;;15.04;62.31
56668;BME280;42542;48.360;10.958;2023-01-01T12:59:47;96623.47;;;15.10;62.03
56668;BME280;42542;48.360;10.958;2023-01-01T13:02:59;96619.56;;;15.13;61.12
56668;BME280;42542;48.360;10.958;2023-01-01T13:06:03;96630.28;;;15.21;62.17
56668;BME280;42542;48.360;10.958;2023-01-01T13:09:12;96631.63;;;15.25;61.96
56668;BME280;42542;48.360;10.958;2023-01-01T13:12:18;96620.47;;;15.28;61.37
56668;BME280;42542;48.360;10.958;2023-01-01T13:15:54;96623.34;;;15.27;59.39
56668;BME280;42542;48.360;10.958;2023-01-01T13:18:57;96624.84;;;15.29;61.25
56668;BME280;42542;48.360;10.958;2023-01-01T13:25:27;96618.09;;;15.33;61.57
56668;BME280;42542;48.360;10.958;2023-01-01T13:32:14;96629.69;;;15.34;61.32
56668;BME280;42542;48.360;10.958;2023-01-01T13:35:16;96627.00;;;15.34;61.16
56668;BME280;42542;48.360;10.958;2023-01-01T13:41:48;96620.78;;;15.33;60.69
56668;BME280;42542;48.360;10.958;2023-01-01T13:44:50;96614.53;;;15.33;60.76
56668;BME280;42542;48.360;10.958;2023-01-01T13:48:42;96620.56;;;15.35;61.06
56668;BME280;42542;48.360;10.958;2023-01-01T13:51:34;96622.63;;;15.33;61.54
56668;BME280;42542;48.360;10.958;2023-01-01T13:55:36;96618.97;;;15.26;60.98
56668;BME280;42542;48.360;10.958;2023-01-01T14:05:35;96614.69;;;15.16;61.88
56668;BME280;42542;48.360;10.958;2023-01-01T14:30:24;96632.44;;;14.80;65.12
56668;BME280;42542;48.360;10.958;2023-01-01T14:33:28;96635.00;;;14.73;66.22
56668;BME280;42542;48.360;10.958;2023-01-01T14:36:30;96641.28;;;14.66;66.72
56668;BME280;42542;48.360;10.958;2023-01-01T14:39:34;96651.91;;;14.59;67.53
56668;BME280;42542;48.360;10.958;2023-01-01T14:42:38;96647.41;;;14.52;68.49
56668;BME280;42542;48.360;10.958;2023-01-01T14:45:42;96645.59;;;14.44;68.67
56668;BME280;42542;48.360;10.958;2023-01-01T14:48:46;96643.06;;;14.34;69.38
56668;BME280;42542;48.360;10.958;2023-01-01T14:51:55;96648.66;;;14.25;70.42
56668;BME280;42542;48.360;10.958;2023-01-01T14:54:59;96652.56;;;14.14;70.42
56668;BME280;42542;48.360;10.958;2023-01-01T14:58:02;96657.13;;;14.05;71.55
56668;BME280;42542;48.360;10.958;2023-01-01T15:01:24;96647.75;;;13.93;72.11
56668;BME280;42542;48.360;10.958;2023-01-01T15:04:27;96646.28;;;13.83;72.24
56668;BME280;42542;48.360;10.958;2023-01-01T15:07:30;96652.00;;;13.72;72.64
56668;BME280;42542;48.360;10.958;2023-01-01T15:10:35;96648.00;;;13.59;73.41
56668;BME280;42542;48.360;10.958;2023-01-01T15:13:38;96644.63;;;13.49;73.61
56668;BME280;42542;48.360;10.958;2023-01-01T15:16:40;96645.47;;;13.34;74.05
56668;BME280;42542;48.360;10.958;2023-01-01T15:19:44;96632.41;;;13.22;74.50
56668;BME280;42542;48.360;10.958;2023-01-01T15:22:47;96635.56;;;13.10;74.87
56668;BME280;42542;48.360;10.958;2023-01-01T15:25:49;96617.09;;;12.90;75.24
56668;BME280;42542;48.360;10.958;2023-01-01T15:28:51;96625.81;;;12.84;75.37
56668;BME280;42542;48.360;10.958;2023-01-01T15:31:56;96625.31;;;12.73;75.76
56668;BME280;42542;48.360;10.958;2023-01-01T15:35:01;96624.09;;;12.59;76.07
56668;BME280;42542;48.360;10.958;2023-01-01T15:38:20;96610.81;;;12.41;76.51
56668;BME280;42542;48.360;10.958;2023-01-01T15:41:47;96620.50;;;12.34;76.63
56668;BME280;42542;48.360;10.958;2023-01-01T15:44:47;96625.34;;;12.23;77.26
56668;BME280;42542;48.360;10.958;2023-01-01T15:47:54;96619.25;;;12.12;77.60
56668;BME280;42542;48.360;10.958;2023-01-01T15:54:14;96625.88;;;11.92;78.28
56668;BME280;42542;48.360;10.958;2023-01-01T15:57:20;96623.50;;;11.81;78.15
56668;BME280;42542;48.360;10.958;2023-01-01T16:00:28;96622.72;;;11.71;78.17
56668;BME280;42542;48.360;10.958;2023-01-01T16:03:32;96620.16;;;11.61;78.46
56668;BME280;42542;48.360;10.958;2023-01-01T16:06:54;96619.44;;;11.51;79.12
56668;BME280;42542;48.360;10.958;2023-01-01T16:09:58;96617.34;;;11.37;79.61
56668;BME280;42542;48.360;10.958;2023-01-01T16:13:00;96627.13;;;11.28;80.03
56668;BME280;42542;48.360;10.958;2023-01-01T16:16:02;96615.31;;;11.13;79.57
56668;BME280;42542;48.360;10.958;2023-01-01T16:19:05;96627.63;;;11.06;79.60
56668;BME280;42542;48.360;10.958;2023-01-01T16:22:13;96629.53;;;10.96;80.31
56668;BME280;42542;48.360;10.958;2023-01-01T16:25:18;96620.78;;;10.86;80.52
56668;BME280;42542;48.360;10.958;2023-01-01T16:28:20;96633.22;;;10.77;80.37
56668;BME280;42542;48.360;10.958;2023-01-01T16:31:25;96626.25;;;10.67;81.03
56668;BME280;42542;48.360;10.958;2023-01-01T16:34:30;96628.88;;;10.59;80.94
56668;BME280;42542;48.360;10.958;2023-01-01T16:37:33;96613.91;;;10.48;81.69
56668;BME280;42542;48.360;10.958;2023-01-01T16:40:35;96613.09;;;10.38;81.65
56668;BME280;42542;48.360;10.958;2023-01-01T16:43:39;96612.72;;;10.33;81.60
56668;BME280;42542;48.360;10.958;2023-01-01T16:46:42;96624.16;;;10.25;82.04
56668;BME280;42542;48.360;10.958;2023-01-01T16:49:45;96619.44;;;10.19;82.18
56668;BME280;42542;48.360;10.958;2023-01-01T16:52:46;96612.13;;;10.11;81.94
56668;BME280;42542;48.360;10.958;2023-01-01T16:55:51;96609.22;;;10.05;82.16
56668;BME280;42542;48.360;10.958;2023-01-01T16:58:54;96608.13;;;9.98;82.16
56668;BME280;42542;48.360;10.958;2023-01-01T17:02:04;96616.03;;;9.90;82.51
56668;BME280;42542;48.360;10.958;2023-01-01T17:05:06;96607.25;;;9.79;83.16
56668;BME280;42542;48.360;10.958;2023-01-01T17:08:11;96614.84;;;9.74;82.72
56668;BME280;42542;48.360;10.958;2023-01-01T17:11:14;96625.41;;;9.66;83.59
56668;BME280;42542;48.360;10.958;2023-01-01T17:14:18;96618.28;;;9.57;83.54
56668;BME280;42542;48.360;10.958;2023-01-01T17:17:19;96617.19;;;9.50;83.12
56668;BME280;42542;48.360;10.958;2023-01-01T17:20:22;96622.41;;;9.42;83.95
56668;BME280;42542;48.360;10.958;2023-01-01T17:23:23;96623.97;;;9.35;84.13
56668;BME280;42542;48.360;10.958;2023-01-01T17:26:26;96613.03;;;9.28;84.57
56668;BME280;42542;48.360;10.958;2023-01-01T17:29:27;96610.38;;;9.19;84.97
56668;BME280;42542;48.360;10.958;2023-01-01T17:32:29;96612.78;;;9.12;84.54
56668;BME280;42542;48.360;10.958;2023-01-01T17:35:36;96609.72;;;9.07;84.70
56668;BME280;42542;48.360;10.958;2023-01-01T17:38:39;96610.44;;;8.99;85.04
56668;BME280;42542;48.360;10.958;2023-01-01T17:41:42;96608.31;;;8.93;85.84
56668;BME280;42542;48.360;10.958;2023-01-01T17:44:44;96604.53;;;8.86;86.00
56668;BME280;42542;48.360;10.958;2023-01-01T17:47:46;96608.63;;;8.81;86.16
56668;BME280;42542;48.360;10.958;2023-01-01T17:50:48;96603.97;;;8.73;86.45
56668;BME280;42542;48.360;10.958;2023-01-01T17:53:51;96603.44;;;8.70;86.14
56668;BME280;42542;48.360;10.958;2023-01-01T17:56:52;96605.81;;;8.63;85.92
56668;BME280;42542;48.360;10.958;2023-01-01T17:59:55;96612.41;;;8.59;86.04